sensor_id;sensor_type;location;lat;lon;timestamp;pressure;altitude;pressure_sealevel;temperature;humidity
46408;BME280;32110;45.724;21.276;2023-06-19T00:00:39;100499.94;;;16.43;nan
46408;BME280;32110;45.724;21.276;2023-06-19T00:03:04;100509.19;;;16.35;nan
46408;BME280;32110;45.724;21.276;2023-06-19T00:05:30;100507.06;;;16.27;nan
46408;BME280;32110;45.724;21.276;2023-06-19T00:07:55;100508.91;;;16.21;nan
46408;BME280;32110;45.724;21.276;2023-06-19T00:10:21;100504.84;;;16.13;nan
46408;BME280;32110;45.724;21.276;2023-06-19T00:12:46;100503.53;;;16.11;nan
46408;BME280;32110;45.724;21.276;2023-06-19T00:15:12;100507.22;;;16.05;nan
46408;BME280;32110;45.724;21.276;2023-06-19T00:17:37;100507.19;;;16.00;nan
46408;BME280;32110;45.724;21.276;2023-06-19T00:20:04;100498.91;;;15.91;nan
46408;BME280;32110;45.724;21.276;2023-06-19T00:22:30;100499.66;;;15.81;nan
46408;BME280;32110;45.724;21.276;2023-06-19T00:24:56;100503.34;;;15.80;nan
46408;BME280;32110;45.724;21.276;2023-06-19T00:27:21;100503.88;;;15.77;nan
46408;BME280;32110;45.724;21.276;2023-06-19T00:29:47;100495.59;;;15.68;nan
46408;BME280;32110;45.724;21.276;2023-06-19T00:32:12;100487.28;;;15.60;nan
46408;BME280;32110;45.724;21.276;2023-06-19T00:34:38;100485.69;;;15.59;nan
46408;BME280;32110;45.724;21.276;2023-06-19T00:37:03;100486.19;;;15.56;nan
46408;BME280;32110;45.724;21.276;2023-06-19T00:39:29;100471.78;;;15.46;nan
46408;BME280;32110;45.724;21.276;2023-06-19T00:41:55;100494.44;;;15.54;nan
46408;BME280;32110;45.724;21.276;2023-06-19T00:44:22;100489.38;;;15.52;nan
46408;BME280;32110;45.724;21.276;2023-06-19T00:46:51;100453.69;;;15.33;nan
46408;BME280;32110;45.724;21.276;2023-06-19T00:49:16;100473.38;;;15.42;nan
46408;BME280;32110;45.724;21.276;2023-06-19T00:51:42;100476.03;;;15.42;nan
46408;BME280;32110;45.724;21.276;2023-06-19T00:54:07;100493.03;;;15.46;nan
46408;BME280;32110;45.724;21.276;2023-06-19T00:56:33;100482.13;;;15.43;nan
46408;BME280;32110;45.724;21.276;2023-06-19T00:59:06;100489.28;;;15.37;nan
46408;BME280;32110;45.724;21.276;2023-06-19T01:01:32;100494.28;;;15.34;nan
46408;BME280;32110;45.724;21.276;2023-06-19T01:03:59;100496.97;;;15.39;nan
46408;BME280;32110;45.724;21.276;2023-06-19T01:06:27;100500.16;;;15.41;nan
46408;BME280;32110;45.724;21.276;2023-06-19T01:09:06;100495.63;;;15.36;nan
46408;BME280;32110;45.724;21.276;2023-06-19T01:11:33;100502.56;;;15.42;nan
46408;BME280;32110;45.724;21.276;2023-06-19T01:14:03;100497.50;;;15.41;nan
46408;BME280;32110;45.724;21.276;2023-06-19T01:16:31;100484.44;;;15.34;nan
46408;BME280;32110;45.724;21.276;2023-06-19T01:18:57;100496.72;;;15.40;nan
46408;BME280;32110;45.724;21.276;2023-06-19T01:21:23;100491.94;;;15.37;nan
46408;BME280;32110;45.724;21.276;2023-06-19T01:23:48;100485.53;;;15.33;nan
46408;BME280;32110;45.724;21.276;2023-06-19T01:26:16;100500.91;;;15.36;nan
46408;BME280;32110;45.724;21.276;2023-06-19T01:28:43;100490.78;;;15.28;nan
46408;BME280;32110;45.724;21.276;2023-06-19T01:31:13;100464.91;;;15.13;nan
46408;BME280;32110;45.724;21.276;2023-06-19T01:33:42;100502.47;;;15.32;nan
46408;BME280;32110;45.724;21.276;2023-06-19T01:36:09;100493.16;;;15.29;nan
46408;BME280;32110;45.724;21.276;2023-06-19T01:38:35;100490.47;;;15.24;nan
46408;BME280;32110;45.724;21.276;2023-06-19T01:41:02;100484.34;;;15.19;nan
46408;BME280;32110;45.724;21.276;2023-06-19T01:43:29;100491.03;;;15.26;nan
46408;BME280;32110;45.724;21.276;2023-06-19T01:45:56;100492.59;;;15.22;nan
46408;BME280;32110;45.724;21.276;2023-06-19T01:48:23;100490.19;;;15.21;nan
46408;BME280;32110;45.724;21.276;2023-06-19T01:50:48;100484.31;;;15.14;nan
46408;BME280;32110;45.724;21.276;2023-06-19T01:53:14;100487.50;;;15.16;nan
46408;BME280;32110;45.724;21.276;2023-06-19T01:55:39;100486.09;;;15.08;nan
46408;BME280;32110;45.724;21.276;2023-06-19T01:58:05;100486.91;;;15.08;nan
46408;BME280;32110;45.724;21.276;2023-06-19T02:00:30;100494.88;;;15.08;nan
46408;BME280;32110;45.724;21.276;2023-06-19T02:03:00;100488.44;;;14.99;nan
46408;BME280;32110;45.724;21.276;2023-06-19T02:05:25;100483.09;;;14.94;nan
46408;BME280;32110;45.724;21.276;2023-06-19T02:07:51;100489.66;;;14.92;nan
46408;BME280;32110;45.724;21.276;2023-06-19T02:10:16;100486.69;;;14.83;nan
46408;BME280;32110;45.724;21.276;2023-06-19T02:12:41;100487.66;;;14.77;nan
46408;BME280;32110;45.724;21.276;2023-06-19T02:15:07;100482.03;;;14.68;nan
46408;BME280;32110;45.724;21.276;2023-06-19T02:17:33;100492.97;;;14.77;nan
46408;BME280;32110;45.724;21.276;2023-06-19T02:19:58;100484.78;;;14.78;nan
46408;BME280;32110;45.724;21.276;2023-06-19T02:22:23;100492.50;;;14.80;nan
46408;BME280;32110;45.724;21.276;2023-06-19T02:24:49;100477.34;;;14.75;nan
46408;BME280;32110;45.724;21.276;2023-06-19T02:27:14;100487.44;;;14.78;nan
46408;BME280;32110;45.724;21.276;2023-06-19T02:29:41;100465.53;;;14.61;nan
46408;BME280;32110;45.724;21.276;2023-06-19T02:32:06;100497.53;;;14.81;nan
46408;BME280;32110;45.724;21.276;2023-06-19T02:34:32;100498.31;;;14.82;nan
46408;BME280;32110;45.724;21.276;2023-06-19T02:36:57;100500.97;;;14.82;nan
46408;BME280;32110;45.724;21.276;2023-06-19T02:39:23;100490.31;;;14.77;nan
46408;BME280;32110;45.724;21.276;2023-06-19T02:41:49;100495.63;;;14.77;nan
46408;BME280;32110;45.724;21.276;2023-06-19T02:44:14;100494.84;;;14.76;nan
46408;BME280;32110;45.724;21.276;2023-06-19T02:46:40;100497.94;;;14.68;nan
46408;BME280;32110;45.724;21.276;2023-06-19T02:49:05;100501.06;;;14.65;nan
46408;BME280;32110;45.724;21.276;2023-06-19T02:51:31;100470.91;;;14.44;nan
46408;BME280;32110;45.724;21.276;2023-06-19T02:53:56;100494.94;;;14.59;nan
46408;BME280;32110;45.724;21.276;2023-06-19T02:56:22;100495.47;;;14.61;nan
46408;BME280;32110;45.724;21.276;2023-06-19T02:58:47;100496.50;;;14.60;nan
46408;BME280;32110;45.724;21.276;2023-06-19T03:01:13;100497.56;;;14.59;nan
46408;BME280;32110;45.724;21.276;2023-06-19T03:03:38;100500.16;;;14.54;nan
46408;BME280;32110;45.724;21.276;2023-06-19T03:06:06;100499.94;;;14.56;nan
46408;BME280;32110;45.724;21.276;2023-06-19T03:08:36;100502.88;;;14.59;nan
46408;BME280;32110;45.724;21.276;2023-06-19T03:11:02;100494.94;;;14.59;nan
46408;BME280;32110;45.724;21.276;2023-06-19T03:13:52;100494.69;;;14.61;nan
46408;BME280;32110;45.724;21.276;2023-06-19T03:16:19;100494.94;;;14.59;nan
46408;BME280;32110;45.724;21.276;2023-06-19T03:18:45;100504.72;;;14.59;nan
46408;BME280;32110;45.724;21.276;2023-06-19T03:21:14;100490.06;;;14.51;nan
46408;BME280;32110;45.724;21.276;2023-06-19T03:23:40;100505.75;;;14.58;nan
46408;BME280;32110;45.724;21.276;2023-06-19T03:26:09;100504.69;;;14.54;nan
46408;BME280;32110;45.724;21.276;2023-06-19T03:28:35;100511.25;;;14.51;nan
46408;BME280;32110;45.724;21.276;2023-06-19T03:31:01;100494.47;;;14.45;nan
46408;BME280;32110;45.724;21.276;2023-06-19T03:33:27;100488.63;;;14.43;nan
46408;BME280;32110;45.724;21.276;2023-06-19T03:35:52;100491.09;;;14.50;nan
46408;BME280;32110;45.724;21.276;2023-06-19T03:38:17;100491.09;;;14.50;nan
46408;BME280;32110;45.724;21.276;2023-06-19T03:40:43;100499.66;;;14.57;nan
46408;BME280;32110;45.724;21.276;2023-06-19T03:43:08;100496.72;;;14.54;nan
46408;BME280;32110;45.724;21.276;2023-06-19T03:45:34;100497.34;;;14.61;nan
46408;BME280;32110;45.724;21.276;2023-06-19T03:47:59;100493.88;;;14.60;nan
46408;BME280;32110;45.724;21.276;2023-06-19T03:50:24;100482.75;;;14.58;nan
46408;BME280;32110;45.724;21.276;2023-06-19T03:52:50;100485.69;;;14.62;nan
46408;BME280;32110;45.724;21.276;2023-06-19T03:55:15;100491.03;;;14.67;nan
46408;BME280;32110;45.724;21.276;2023-06-19T03:57:41;100489.16;;;14.67;nan
46408;BME280;32110;45.724;21.276;2023-06-19T04:00:06;100488.69;;;14.71;nan
46408;BME280;32110;45.724;21.276;2023-06-19T04:02:33;100492.41;;;14.75;nan
46408;BME280;32110;45.724;21.276;2023-06-19T04:04:59;100498.03;;;14.78;nan
46408;BME280;32110;45.724;21.276;2023-06-19T04:07:24;100501.03;;;14.87;nan
46408;BME280;32110;45.724;21.276;2023-06-19T04:09:50;100487.53;;;14.88;nan
46408;BME280;32110;45.724;21.276;2023-06-19T04:12:15;100547.56;;;15.32;nan
46408;BME280;32110;45.724;21.276;2023-06-19T04:14:40;100482.06;;;15.00;nan
46408;BME280;32110;45.724;21.276;2023-06-19T04:17:06;100500.22;;;15.14;nan
46408;BME280;32110;45.724;21.276;2023-06-19T04:19:31;100497.84;;;15.17;nan
46408;BME280;32110;45.724;21.276;2023-06-19T04:21:57;100498.19;;;15.26;nan
46408;BME280;32110;45.724;21.276;2023-06-19T04:24:22;100496.66;;;15.30;nan
46408;BME280;32110;45.724;21.276;2023-06-19T04:26:47;100506.56;;;15.45;nan
46408;BME280;32110;45.724;21.276;2023-06-19T04:29:13;100507.69;;;15.54;nan
46408;BME280;32110;45.724;21.276;2023-06-19T04:31:43;100502.41;;;15.59;nan
46408;BME280;32110;45.724;21.276;2023-06-19T04:34:12;100505.91;;;15.65;nan
46408;BME280;32110;45.724;21.276;2023-06-19T04:36:39;100497.38;;;15.63;nan
46408;BME280;32110;45.724;21.276;2023-06-19T04:39:05;100503.31;;;15.70;nan
46408;BME280;32110;45.724;21.276;2023-06-19T04:41:30;100504.66;;;15.78;nan
46408;BME280;32110;45.724;21.276;2023-06-19T04:43:56;100512.72;;;15.88;nan
46408;BME280;32110;45.724;21.276;2023-06-19T04:46:21;100504.78;;;15.93;nan
46408;BME280;32110;45.724;21.276;2023-06-19T04:48:47;100509.84;;;16.00;nan
46408;BME280;32110;45.724;21.276;2023-06-19T04:51:17;100510.44;;;16.12;nan
46408;BME280;32110;45.724;21.276;2023-06-19T04:53:48;100521.91;;;16.28;nan
46408;BME280;32110;45.724;21.276;2023-06-19T04:56:14;100498.78;;;16.23;nan
46408;BME280;32110;45.724;21.276;2023-06-19T04:58:40;100527.31;;;16.43;nan
46408;BME280;32110;45.724;21.276;2023-06-19T05:01:14;100515.06;;;16.42;nan
46408;BME280;32110;45.724;21.276;2023-06-19T05:03:39;100535.06;;;16.55;nan
46408;BME280;32110;45.724;21.276;2023-06-19T05:06:05;100527.59;;;16.52;nan
46408;BME280;32110;45.724;21.276;2023-06-19T05:08:30;100528.97;;;16.59;nan
46408;BME280;32110;45.724;21.276;2023-06-19T05:10:56;100537.19;;;16.63;nan
46408;BME280;32110;45.724;21.276;2023-06-19T05:13:23;100535.63;;;16.72;nan
46408;BME280;32110;45.724;21.276;2023-06-19T05:15:48;100531.09;;;16.73;nan
46408;BME280;32110;45.724;21.276;2023-06-19T05:18:15;100539.94;;;16.78;nan
46408;BME280;32110;45.724;21.276;2023-06-19T05:20:40;100545.00;;;16.85;nan
46408;BME280;32110;45.724;21.276;2023-06-19T05:23:05;100555.13;;;16.93;nan
46408;BME280;32110;45.724;21.276;2023-06-19T05:25:31;100545.81;;;16.96;nan
46408;BME280;32110;45.724;21.276;2023-06-19T05:27:56;100534.66;;;16.99;nan
46408;BME280;32110;45.724;21.276;2023-06-19T05:30:22;100546.63;;;17.07;nan
46408;BME280;32110;45.724;21.276;2023-06-19T05:32:47;100534.94;;;17.13;nan
46408;BME280;32110;45.724;21.276;2023-06-19T05:35:12;100551.19;;;17.27;nan
46408;BME280;32110;45.724;21.276;2023-06-19T05:37:38;100547.72;;;17.31;nan
46408;BME280;32110;45.724;21.276;2023-06-19T05:40:05;100538.94;;;17.31;nan
46408;BME280;32110;45.724;21.276;2023-06-19T05:42:31;100549.84;;;17.44;nan
46408;BME280;32110;45.724;21.276;2023-06-19T05:44:56;100559.97;;;17.63;nan
46408;BME280;32110;45.724;21.276;2023-06-19T05:47:22;100552.50;;;17.70;nan
46408;BME280;32110;45.724;21.276;2023-06-19T05:49:50;100563.66;;;17.93;nan
46408;BME280;32110;45.724;21.276;2023-06-19T05:52:16;100557.00;;;17.95;nan
46408;BME280;32110;45.724;21.276;2023-06-19T05:54:42;100556.72;;;18.02;nan
46408;BME280;32110;45.724;21.276;2023-06-19T05:57:07;100557.78;;;18.06;nan
46408;BME280;32110;45.724;21.276;2023-06-19T05:59:33;100559.06;;;18.19;nan
46408;BME280;32110;45.724;21.276;2023-06-19T06:01:58;100568.09;;;18.28;nan
46408;BME280;32110;45.724;21.276;2023-06-19T06:04:23;100571.25;;;18.40;nan
46408;BME280;32110;45.724;21.276;2023-06-19T06:06:49;100569.38;;;18.51;nan
46408;BME280;32110;45.724;21.276;2023-06-19T06:09:14;100573.84;;;18.61;nan
46408;BME280;32110;45.724;21.276;2023-06-19T06:11:44;100583.16;;;18.68;nan
46408;BME280;32110;45.724;21.276;2023-06-19T06:14:10;100578.88;;;18.73;nan
46408;BME280;32110;45.724;21.276;2023-06-19T06:16:35;100578.28;;;18.86;nan
46408;BME280;32110;45.724;21.276;2023-06-19T06:19:01;100582.72;;;19.01;nan
46408;BME280;32110;45.724;21.276;2023-06-19T06:21:26;100580.78;;;19.11;nan
46408;BME280;32110;45.724;21.276;2023-06-19T06:23:52;100578.59;;;19.19;nan
46408;BME280;32110;45.724;21.276;2023-06-19T06:26:19;100579.31;;;19.29;nan
46408;BME280;32110;45.724;21.276;2023-06-19T06:28:44;100581.88;;;19.45;nan
46408;BME280;32110;45.724;21.276;2023-06-19T06:31:10;100585.31;;;19.50;nan
46408;BME280;32110;45.724;21.276;2023-06-19T06:33:35;100584.72;;;19.59;nan
46408;BME280;32110;45.724;21.276;2023-06-19T06:36:01;100577.09;;;19.76;nan
46408;BME280;32110;45.724;21.276;2023-06-19T06:38:26;100583.44;;;19.85;nan
46408;BME280;32110;45.724;21.276;2023-06-19T06:40:51;100584.31;;;20.05;nan
46408;BME280;32110;45.724;21.276;2023-06-19T06:43:17;100582.16;;;20.07;nan
46408;BME280;32110;45.724;21.276;2023-06-19T06:45:42;100590.50;;;20.24;nan
46408;BME280;32110;45.724;21.276;2023-06-19T06:48:08;100603.25;;;20.32;nan
46408;BME280;32110;45.724;21.276;2023-06-19T06:50:33;100596.53;;;20.35;nan
46408;BME280;32110;45.724;21.276;2023-06-19T06:53:00;100591.78;;;20.51;nan
46408;BME280;32110;45.724;21.276;2023-06-19T06:55:25;100590.13;;;20.60;nan
46408;BME280;32110;45.724;21.276;2023-06-19T06:57:51;100591.84;;;20.70;nan
46408;BME280;32110;45.724;21.276;2023-06-19T07:00:16;100588.09;;;20.71;nan
46408;BME280;32110;45.724;21.276;2023-06-19T07:02:43;100593.75;;;20.88;nan
46408;BME280;32110;45.724;21.276;2023-06-19T07:05:10;100597.66;;;20.96;nan
46408;BME280;32110;45.724;21.276;2023-06-19T07:07:36;100593.09;;;20.96;nan
46408;BME280;32110;45.724;21.276;2023-06-19T07:10:01;100584.56;;;20.94;nan
46408;BME280;32110;45.724;21.276;2023-06-19T07:12:26;100589.47;;;21.06;nan
46408;BME280;32110;45.724;21.276;2023-06-19T07:14:56;100589.53;;;21.20;nan
46408;BME280;32110;45.724;21.276;2023-06-19T07:17:22;100592.84;;;21.31;nan
46408;BME280;32110;45.724;21.276;2023-06-19T07:19:47;100586.06;;;21.38;nan
46408;BME280;32110;45.724;21.276;2023-06-19T07:22:13;100558.09;;;21.25;nan
46408;BME280;32110;45.724;21.276;2023-06-19T07:24:42;100580.63;;;21.43;nan
46408;BME280;32110;45.724;21.276;2023-06-19T07:27:07;100591.59;;;21.61;nan
46408;BME280;32110;45.724;21.276;2023-06-19T07:29:32;100594.19;;;21.66;nan
46408;BME280;32110;45.724;21.276;2023-06-19T07:31:58;100601.06;;;21.72;nan
46408;BME280;32110;45.724;21.276;2023-06-19T07:34:24;100603.44;;;21.74;nan
46408;BME280;32110;45.724;21.276;2023-06-19T07:36:49;100606.09;;;21.74;nan
46408;BME280;32110;45.724;21.276;2023-06-19T07:39:15;100604.94;;;21.80;nan
46408;BME280;32110;45.724;21.276;2023-06-19T07:41:41;100603.28;;;21.84;nan
46408;BME280;32110;45.724;21.276;2023-06-19T07:44:06;100613.53;;;21.96;nan
46408;BME280;32110;45.724;21.276;2023-06-19T07:46:31;100595.53;;;21.96;nan
46408;BME280;32110;45.724;21.276;2023-06-19T07:48:57;100599.81;;;22.11;nan
46408;BME280;32110;45.724;21.276;2023-06-19T07:51:22;100604.63;;;22.28;nan
46408;BME280;32110;45.724;21.276;2023-06-19T07:53:47;100607.19;;;22.33;nan
46408;BME280;32110;45.724;21.276;2023-06-19T07:56:13;100610.16;;;22.45;nan
46408;BME280;32110;45.724;21.276;2023-06-19T07:58:38;100609.78;;;22.52;nan
46408;BME280;32110;45.724;21.276;2023-06-19T08:01:03;100606.19;;;22.57;nan
46408;BME280;32110;45.724;21.276;2023-06-19T08:03:29;100610.38;;;22.63;nan
46408;BME280;32110;45.724;21.276;2023-06-19T08:05:55;100611.31;;;22.81;nan
46408;BME280;32110;45.724;21.276;2023-06-19T08:08:20;100610.22;;;22.82;nan
46408;BME280;32110;45.724;21.276;2023-06-19T08:10:46;100614.88;;;22.90;nan
46408;BME280;32110;45.724;21.276;2023-06-19T08:13:11;100607.63;;;22.90;nan
46408;BME280;32110;45.724;21.276;2023-06-19T08:15:37;100607.22;;;22.97;nan
46408;BME280;32110;45.724;21.276;2023-06-19T08:18:02;100599.94;;;22.98;nan
46408;BME280;32110;45.724;21.276;2023-06-19T08:20:28;100609.69;;;23.07;nan
46408;BME280;32110;45.724;21.276;2023-06-19T08:22:53;100616.53;;;23.13;nan
46408;BME280;32110;45.724;21.276;2023-06-19T08:25:19;100617.88;;;23.25;nan
46408;BME280;32110;45.724;21.276;2023-06-19T08:27:44;100609.22;;;23.28;nan
46408;BME280;32110;45.724;21.276;2023-06-19T08:30:10;100606.41;;;23.33;nan
46408;BME280;32110;45.724;21.276;2023-06-19T08:32:36;100610.91;;;23.46;nan
46408;BME280;32110;45.724;21.276;2023-06-19T08:35:01;100611.91;;;23.50;nan
46408;BME280;32110;45.724;21.276;2023-06-19T08:37:28;100612.25;;;23.57;nan
46408;BME280;32110;45.724;21.276;2023-06-19T08:39:53;100609.44;;;23.63;nan
46408;BME280;32110;45.724;21.276;2023-06-19T08:42:20;100602.84;;;23.69;nan
46408;BME280;32110;45.724;21.276;2023-06-19T08:44:46;100609.09;;;23.78;nan
46408;BME280;32110;45.724;21.276;2023-06-19T08:47:11;100611.50;;;23.88;nan
46408;BME280;32110;45.724;21.276;2023-06-19T08:49:36;100611.06;;;23.95;nan
46408;BME280;32110;45.724;21.276;2023-06-19T08:52:02;100613.78;;;24.04;nan
46408;BME280;32110;45.724;21.276;2023-06-19T08:54:29;100604.19;;;24.11;nan
46408;BME280;32110;45.724;21.276;2023-06-19T08:56:54;100601.34;;;24.16;nan
46408;BME280;32110;45.724;21.276;2023-06-19T08:59:20;100600.41;;;24.21;nan
46408;BME280;32110;45.724;21.276;2023-06-19T09:01:51;100597.75;;;24.30;nan
46408;BME280;32110;45.724;21.276;2023-06-19T09:04:28;100600.47;;;24.38;nan
46408;BME280;32110;45.724;21.276;2023-06-19T09:07:03;100602.41;;;24.47;nan
46408;BME280;32110;45.724;21.276;2023-06-19T09:09:29;100598.47;;;24.53;nan
46408;BME280;32110;45.724;21.276;2023-06-19T09:12:03;100593.91;;;24.62;nan
46408;BME280;32110;45.724;21.276;2023-06-19T09:17:06;100583.44;;;24.69;nan
46408;BME280;32110;45.724;21.276;2023-06-19T09:19:35;100590.56;;;24.82;nan
46408;BME280;32110;45.724;21.276;2023-06-19T09:22:04;100592.81;;;24.89;nan
46408;BME280;32110;45.724;21.276;2023-06-19T09:24:34;100589.63;;;24.96;nan
46408;BME280;32110;45.724;21.276;2023-06-19T09:27:11;100590.59;;;25.00;nan
46408;BME280;32110;45.724;21.276;2023-06-19T09:29:44;100594.56;;;25.02;nan
46408;BME280;32110;45.724;21.276;2023-06-19T09:32:26;100590.75;;;25.12;nan
46408;BME280;32110;45.724;21.276;2023-06-19T09:34:55;100592.31;;;25.13;nan
46408;BME280;32110;45.724;21.276;2023-06-19T09:37:26;100578.72;;;25.10;nan
46408;BME280;32110;45.724;21.276;2023-06-19T09:39:56;100583.75;;;25.11;nan
46408;BME280;32110;45.724;21.276;2023-06-19T09:42:33;100582.66;;;25.21;nan
46408;BME280;32110;45.724;21.276;2023-06-19T09:45:03;100585.69;;;25.28;nan
46408;BME280;32110;45.724;21.276;2023-06-19T09:47:32;100582.81;;;25.42;nan
46408;BME280;32110;45.724;21.276;2023-06-19T09:50:01;100591.34;;;25.53;nan
46408;BME280;32110;45.724;21.276;2023-06-19T09:52:27;100586.09;;;25.56;nan
46408;BME280;32110;45.724;21.276;2023-06-19T09:54:54;100579.44;;;25.62;nan
46408;BME280;32110;45.724;21.276;2023-06-19T09:57:20;100582.91;;;25.63;nan
46408;BME280;32110;45.724;21.276;2023-06-19T09:59:47;100574.66;;;25.68;nan
46408;BME280;32110;45.724;21.276;2023-06-19T10:02:16;100578.44;;;25.76;nan
46408;BME280;32110;45.724;21.276;2023-06-19T10:04:48;100568.91;;;25.78;nan
46408;BME280;32110;45.724;21.276;2023-06-19T10:07:26;100574.78;;;25.89;nan
46408;BME280;32110;45.724;21.276;2023-06-19T10:10:01;100582.03;;;25.97;nan
46408;BME280;32110;45.724;21.276;2023-06-19T10:12:43;100567.09;;;26.00;nan
46408;BME280;32110;45.724;21.276;2023-06-19T10:15:18;100567.38;;;26.07;nan
46408;BME280;32110;45.724;21.276;2023-06-19T10:18:06;100564.34;;;26.08;nan
46408;BME280;32110;45.724;21.276;2023-06-19T10:20:34;100563.84;;;26.15;nan
46408;BME280;32110;45.724;21.276;2023-06-19T10:23:06;100565.66;;;26.32;nan
46408;BME280;32110;45.724;21.276;2023-06-19T10:25:37;100561.16;;;26.36;nan
46408;BME280;32110;45.724;21.276;2023-06-19T10:28:03;100557.75;;;26.48;nan
46408;BME280;32110;45.724;21.276;2023-06-19T10:30:33;100561.72;;;26.50;nan
46408;BME280;32110;45.724;21.276;2023-06-19T10:33:00;100559.19;;;26.54;nan
46408;BME280;32110;45.724;21.276;2023-06-19T10:35:28;100556.09;;;26.64;nan
46408;BME280;32110;45.724;21.276;2023-06-19T10:37:54;100520.66;;;26.66;nan
46408;BME280;32110;45.724;21.276;2023-06-19T10:40:19;100549.44;;;26.83;nan
46408;BME280;32110;45.724;21.276;2023-06-19T10:42:45;100545.59;;;26.84;nan
46408;BME280;32110;45.724;21.276;2023-06-19T10:45:12;100548.69;;;26.94;nan
46408;BME280;32110;45.724;21.276;2023-06-19T10:47:39;100542.28;;;26.99;nan
46408;BME280;32110;45.724;21.276;2023-06-19T10:50:09;100538.25;;;27.05;nan
46408;BME280;32110;45.724;21.276;2023-06-19T10:52:35;100536.16;;;27.11;nan
46408;BME280;32110;45.724;21.276;2023-06-19T10:55:03;100542.72;;;27.22;nan
46408;BME280;32110;45.724;21.276;2023-06-19T10:57:29;100543.25;;;27.15;nan
46408;BME280;32110;45.724;21.276;2023-06-19T10:59:56;100539.38;;;27.25;nan
46408;BME280;32110;45.724;21.276;2023-06-19T11:02:22;100530.25;;;27.30;nan
46408;BME280;32110;45.724;21.276;2023-06-19T11:04:48;100530.25;;;27.30;nan
46408;BME280;32110;45.724;21.276;2023-06-19T11:07:13;100537.00;;;27.36;nan
46408;BME280;32110;45.724;21.276;2023-06-19T11:09:39;100527.44;;;27.39;nan
46408;BME280;32110;45.724;21.276;2023-06-19T11:12:05;100530.38;;;27.33;nan
46408;BME280;32110;45.724;21.276;2023-06-19T11:14:33;100523.72;;;27.43;nan
46408;BME280;32110;45.724;21.276;2023-06-19T11:17:07;100524.75;;;27.51;nan
46408;BME280;32110;45.724;21.276;2023-06-19T11:19:33;100523.75;;;27.55;nan
46408;BME280;32110;45.724;21.276;2023-06-19T11:21:59;100523.53;;;27.61;nan
46408;BME280;32110;45.724;21.276;2023-06-19T11:24:28;100515.09;;;27.62;nan
46408;BME280;32110;45.724;21.276;2023-06-19T11:26:56;100523.56;;;27.73;nan
46408;BME280;32110;45.724;21.276;2023-06-19T11:29:28;100506.31;;;27.77;nan
46408;BME280;32110;45.724;21.276;2023-06-19T11:32:07;100507.66;;;27.84;nan
46408;BME280;32110;45.724;21.276;2023-06-19T11:34:35;100516.56;;;27.84;nan
46408;BME280;32110;45.724;21.276;2023-06-19T11:37:22;100511.28;;;27.88;nan
46408;BME280;32110;45.724;21.276;2023-06-19T11:39:48;100515.09;;;27.87;nan
46408;BME280;32110;45.724;21.276;2023-06-19T11:42:15;100508.31;;;27.81;nan
46408;BME280;32110;45.724;21.276;2023-06-19T11:45:00;100515.09;;;27.62;nan
46408;BME280;32110;45.724;21.276;2023-06-19T11:47:31;100501.31;;;27.55;nan
46408;BME280;32110;45.724;21.276;2023-06-19T11:49:58;100508.75;;;27.58;nan
46408;BME280;32110;45.724;21.276;2023-06-19T11:52:23;100509.91;;;27.57;nan
46408;BME280;32110;45.724;21.276;2023-06-19T11:54:49;100499.06;;;27.57;nan
46408;BME280;32110;45.724;21.276;2023-06-19T11:57:15;100506.50;;;27.60;nan
46408;BME280;32110;45.724;21.276;2023-06-19T11:59:41;100502.78;;;27.65;nan
46408;BME280;32110;45.724;21.276;2023-06-19T12:02:07;100491.88;;;27.61;nan
46408;BME280;32110;45.724;21.276;2023-06-19T12:04:32;100505.63;;;27.68;nan
46408;BME280;32110;45.724;21.276;2023-06-19T12:06:58;100500.66;;;27.70;nan
46408;BME280;32110;45.724;21.276;2023-06-19T12:09:24;100503.59;;;27.77;nan
46408;BME280;32110;45.724;21.276;2023-06-19T12:11:49;100493.66;;;27.82;nan
46408;BME280;32110;45.724;21.276;2023-06-19T12:14:15;100493.91;;;27.89;nan
46408;BME280;32110;45.724;21.276;2023-06-19T12:16:40;100484.44;;;27.95;nan
46408;BME280;32110;45.724;21.276;2023-06-19T12:19:06;100494.81;;;28.05;nan
46408;BME280;32110;45.724;21.276;2023-06-19T12:21:31;100481.47;;;28.12;nan
46408;BME280;32110;45.724;21.276;2023-06-19T12:23:56;100477.97;;;28.24;nan
46408;BME280;32110;45.724;21.276;2023-06-19T12:26:22;100485.25;;;28.36;nan
46408;BME280;32110;45.724;21.276;2023-06-19T12:28:50;100478.25;;;28.35;nan
46408;BME280;32110;45.724;21.276;2023-06-19T12:31:16;100477.34;;;28.43;nan
46408;BME280;32110;45.724;21.276;2023-06-19T12:33:41;100468.75;;;28.53;nan
46408;BME280;32110;45.724;21.276;2023-06-19T12:36:10;100475.69;;;28.67;nan
46408;BME280;32110;45.724;21.276;2023-06-19T12:38:38;100472.75;;;28.72;nan
46408;BME280;32110;45.724;21.276;2023-06-19T12:41:04;100461.13;;;28.71;nan
46408;BME280;32110;45.724;21.276;2023-06-19T12:43:29;100463.47;;;28.73;nan
46408;BME280;32110;45.724;21.276;2023-06-19T12:45:57;100465.06;;;28.74;nan
46408;BME280;32110;45.724;21.276;2023-06-19T12:48:24;100467.06;;;28.77;nan
46408;BME280;32110;45.724;21.276;2023-06-19T12:50:50;100458.75;;;28.70;nan
46408;BME280;32110;45.724;21.276;2023-06-19T12:53:16;100458.41;;;28.71;nan
46408;BME280;32110;45.724;21.276;2023-06-19T12:55:41;100457.84;;;28.66;nan
46408;BME280;32110;45.724;21.276;2023-06-19T12:58:08;100449.38;;;28.67;nan
46408;BME280;32110;45.724;21.276;2023-06-19T13:00:33;100453.06;;;28.75;nan